Time;durP1;ratioP1;P1;durP2;ratioP2;P2;SDS_P1;SDS_P2;PMS_P1;PMS_P2;Temp;Humidity;BMP_temperature;BMP_pressure;BME280_temperature;BME280_humidity;BME280_pressure;Samples;Min_cycle;Max_cycle;Signal;HPM_P1;HPM_P2
2022/05/30 00:01:46;;;;;;;;;;;;;;;;;;5054474;28;28485;-89
2022/05/30 00:04:13;;;;;;;;;;;;;;;;;;5036593;28;28407;-91
2022/05/30 00:06:38;;;;;;;;;;;;;;;;;;5054383;28;28400;-90
2022/05/30 00:09:04;;;;;;;;;;;;;;;;;;5054047;28;28418;-89
2022/05/30 00:11:29;;;;;;;;;;;;;;;;;;5052787;28;28470;-90
2022/05/30 00:13:54;;;;;;;;;;;;;;;;;;5054390;28;28541;-90
2022/05/30 00:16:19;;;;;;;;;;;;;;;;;;5069663;28;29529;-90
2022/05/30 00:18:44;;;;;;;;;;;;;;;;;;5053935;28;28167;-90
2022/05/30 00:21:09;;;;;;;;;;;;;;;;;;5054383;28;28489;-92
2022/05/30 00:23:34;;;;;;;;;;;;;;;;;;5053764;28;28459;-90
2022/05/30 00:25:59;;;;;;;;;;;;;;;;;;5054175;28;29307;-91
2022/05/30 00:28:24;;;;;;;;;;;;;;;;;;5069777;28;28497;-92
2022/05/30 00:30:50;;;;;;;;;;;;;;;;;;5069533;28;28402;-91
2022/05/30 00:33:15;;;;;;;;;;;;;;;;;;5052271;28;28599;-91
2022/05/30 00:35:42;;;;;;;;;;;;;;;;;;5052504;28;28505;-90
2022/05/30 00:38:07;;;;;;;;;;;;;;;;;;5052545;28;28121;-91
2022/05/30 00:40:33;;;;;;;;;;;;;;;;;;5054736;28;28489;-90
2022/05/30 00:42:58;;;;;;;;;;;;;;;;;;5057810;28;28334;-91
2022/05/30 00:45:23;;;;;;;;;;;;;;;;;;5057450;28;28379;-91
2022/05/30 00:47:50;;;;;;;;;;;;;;;;;;5072941;28;28622;-90
2022/05/30 00:50:15;;;;;;;;;;;;;;;;;;5056140;28;28461;-91
2022/05/30 00:52:40;;;;;;;;;;;;;;;;;;5073143;28;28502;-90
2022/05/30 00:55:05;;;;;;;;;;;;;;;;;;5072600;28;28434;-89
2022/05/30 00:57:30;;;;;;;;;;;;;;;;;;5056234;28;28542;-92
2022/05/30 00:59:56;;;;;;;;;;;;;;;;;;5055320;28;28613;-91
2022/05/30 01:02:21;;;;;;;;;;;;;;;;;;5054732;28;28344;-91
2022/05/30 01:07:30;;;;;;;;;;;;;;;;;;5037552;28;28411;-91
2022/05/30 01:09:55;;;;;;;;;;;;;;;;;;5052733;28;28308;-90
2022/05/30 01:12:20;;;;;;;;;;;;;;;;;;5053321;28;28300;-91
2022/05/30 01:14:45;;;;;;;;;;;;;;;;;;5037228;28;29364;-93
2022/05/30 01:17:10;;;;;;;;;;;;;;;;;;5038477;28;28432;-91
2022/05/30 01:19:36;;;;;;;;;;;;;;;;;;5057663;28;28524;-92
2022/05/30 01:22:01;;;;;;;;;;;;;;;;;;5056398;28;28323;-92
2022/05/30 01:24:26;;;;;;;;;;;;;;;;;;5057334;28;28694;-92
2022/05/30 01:26:52;;;;;;;;;;;;;;;;;;5056038;28;28471;-91
2022/05/30 01:29:17;;;;;;;;;;;;;;;;;;5057171;28;28394;-91
2022/05/30 01:31:42;;;;;;;;;;;;;;;;;;5057347;28;28489;-91
2022/05/30 01:34:07;;;;;;;;;;;;;;;;;;5057034;28;28520;-91
2022/05/30 01:36:32;;;;;;;;;;;;;;;;;;5057463;28;28371;-91
2022/05/30 01:38:57;;;;;;;;;;;;;;;;;;5056641;28;28465;-90
2022/05/30 01:41:22;;;;;;;;;;;;;;;;;;5057311;28;28417;-91
2022/05/30 01:43:47;;;;;;;;;;;;;;;;;;5055791;28;30026;-91
2022/05/30 01:46:12;;;;;;;;;;;;;;;;;;5056878;28;28354;-92
2022/05/30 01:48:37;;;;;;;;;;;;;;;;;;5055684;28;28351;-92
2022/05/30 01:51:03;;;;;;;;;;;;;;;;;;5056743;28;27827;-93
2022/05/30 01:53:28;;;;;;;;;;;;;;;;;;5057014;28;28521;-91
2022/05/30 01:55:53;;;;;;;;;;;;;;;;;;5056861;28;28296;-90
2022/05/30 01:58:18;;;;;;;;;;;;;;;;;;5057004;28;28343;-92
2022/05/30 02:00:43;;;;;;;;;;;;;;;;;;5046497;28;28392;-91
2022/05/30 02:03:08;;;;;;;;;;;;;;;;;;5055079;28;30088;-91
2022/05/30 02:05:33;;;;;;;;;;;;;;;;;;5056621;28;28468;-90
2022/05/30 02:07:58;;;;;;;;;;;;;;;;;;5056732;28;27823;-91
2022/05/30 02:10:24;;;;;;;;;;;;;;;;;;5056669;28;28264;-92
2022/05/30 02:12:49;;;;;;;;;;;;;;;;;;5056640;28;28481;-91
2022/05/30 02:15:14;;;;;;;;;;;;;;;;;;5056539;28;28422;-91
2022/05/30 02:17:42;;;;;;;;;;;;;;;;;;5056683;28;28338;-90
2022/05/30 02:20:08;;;;;;;;;;;;;;;;;;5056755;28;28336;-91
2022/05/30 02:22:33;;;;;;;;;;;;;;;;;;5056633;28;29137;-89
2022/05/30 02:24:59;;;;;;;;;;;;;;;;;;5056150;28;28390;-91
2022/05/30 02:27:26;;;;;;;;;;;;;;;;;;5056629;28;28356;-90
2022/05/30 02:29:52;;;;;;;;;;;;;;;;;;5056475;28;28624;-91
2022/05/30 02:32:19;;;;;;;;;;;;;;;;;;5056252;28;28616;-91
2022/05/30 02:37:28;;;;;;;;;;;;;;;;;;5056327;28;28448;-91
2022/05/30 02:39:53;;;;;;;;;;;;;;;;;;5055011;28;28458;-90
2022/05/30 02:42:18;;;;;;;;;;;;;;;;;;5054762;28;29831;-91
2022/05/30 02:44:44;;;;;;;;;;;;;;;;;;5055015;28;28321;-91
2022/05/30 02:47:09;;;;;;;;;;;;;;;;;;5054683;28;28379;-91
2022/05/30 02:49:34;;;;;;;;;;;;;;;;;;5056024;28;28402;-90
2022/05/30 02:51:59;;;;;;;;;;;;;;;;;;5056175;28;28684;-91
2022/05/30 02:54:24;;;;;;;;;;;;;;;;;;5055006;28;28492;-92
2022/05/30 02:56:50;;;;;;;;;;;;;;;;;;5056040;28;28835;-91
2022/05/30 02:59:15;;;;;;;;;;;;;;;;;;5054376;28;28403;-91
2022/05/30 03:01:40;;;;;;;;;;;;;;;;;;5056038;28;29253;-90
2022/05/30 03:04:05;;;;;;;;;;;;;;;;;;5055076;28;28513;-90
2022/05/30 03:06:30;;;;;;;;;;;;;;;;;;5044181;28;28408;-93
2022/05/30 03:08:56;;;;;;;;;;;;;;;;;;5054450;28;28398;-91
2022/05/30 03:11:21;;;;;;;;;;;;;;;;;;5054234;28;29686;-91
2022/05/30 03:13:46;;;;;;;;;;;;;;;;;;5055757;28;28105;-90
2022/05/30 03:16:12;;;;;;;;;;;;;;;;;;5055646;28;28312;-91
2022/05/30 03:18:37;;;;;;;;;;;;;;;;;;5055635;28;28291;-90
2022/05/30 03:21:02;;;;;;;;;;;;;;;;;;5054295;28;28506;-90
2022/05/30 03:23:27;;;;;;;;;;;;;;;;;;5055431;28;28398;-90
2022/05/30 03:25:52;;;;;;;;;;;;;;;;;;5055368;28;28451;-92
2022/05/30 03:28:17;;;;;;;;;;;;;;;;;;5055531;28;28363;-91
2022/05/30 03:30:44;;;;;;;;;;;;;;;;;;5055280;28;28431;-92
2022/05/30 03:33:09;;;;;;;;;;;;;;;;;;5055203;28;28252;-91
2022/05/30 03:35:34;;;;;;;;;;;;;;;;;;5055452;28;28396;-92
2022/05/30 03:37:59;;;;;;;;;;;;;;;;;;5041126;28;28394;-93
2022/05/30 03:40:24;;;;;;;;;;;;;;;;;;5047843;28;28794;-91
2022/05/30 03:42:49;;;;;;;;;;;;;;;;;;5053588;28;28324;-90
2022/05/30 03:45:14;;;;;;;;;;;;;;;;;;5055525;28;28395;-91
2022/05/30 03:47:39;;;;;;;;;;;;;;;;;;5055623;28;27827;-90
2022/05/30 03:50:04;;;;;;;;;;;;;;;;;;5055556;28;28418;-90
2022/05/30 03:52:30;;;;;;;;;;;;;;;;;;5054867;28;28256;-91
2022/05/30 03:54:55;;;;;;;;;;;;;;;;;;5054953;28;28470;-90
2022/05/30 03:57:20;;;;;;;;;;;;;;;;;;5055530;28;28390;-90
2022/05/30 03:59:45;;;;;;;;;;;;;;;;;;5055178;28;28649;-92
2022/05/30 04:02:10;;;;;;;;;;;;;;;;;;5055102;28;31390;-92
2022/05/30 04:04:35;;;;;;;;;;;;;;;;;;5055255;28;27870;-91
2022/05/30 04:07:00;;;;;;;;;;;;;;;;;;5055224;28;27764;-91
2022/05/30 04:09:26;;;;;;;;;;;;;;;;;;5054826;28;28387;-90
2022/05/30 04:11:51;;;;;;;;;;;;;;;;;;5054823;28;28228;-90
2022/05/30 04:14:16;;;;;;;;;;;;;;;;;;5053822;28;28360;-91
2022/05/30 04:16:41;;;;;;;;;;;;;;;;;;5053885;28;28332;-91
2022/05/30 04:19:07;;;;;;;;;;;;;;;;;;5058205;28;28622;-91
2022/05/30 04:21:32;;;;;;;;;;;;;;;;;;5058090;28;28458;-93
2022/05/30 04:23:57;;;;;;;;;;;;;;;;;;5058558;28;27768;-91
2022/05/30 04:26:22;;;;;;;;;;;;;;;;;;5058508;28;28322;-91
2022/05/30 04:28:48;;;;;;;;;;;;;;;;;;5057034;28;29623;-88
2022/05/30 04:31:13;;;;;;;;;;;;;;;;;;5058373;28;28518;-91
2022/05/30 04:33:38;;;;;;;;;;;;;;;;;;5057769;28;28406;-91
2022/05/30 04:36:03;;;;;;;;;;;;;;;;;;5058290;28;28394;-90
2022/05/30 04:38:28;;;;;;;;;;;;;;;;;;5056828;28;29822;-90
2022/05/30 04:40:53;;;;;;;;;;;;;;;;;;5056460;28;28559;-91
2022/05/30 04:43:19;;;;;;;;;;;;;;;;;;5056942;28;28393;-90
2022/05/30 04:45:44;;;;;;;;;;;;;;;;;;5056775;28;28379;-90
2022/05/30 04:48:09;;;;;;;;;;;;;;;;;;5056566;28;29993;-91
2022/05/30 04:50:34;;;;;;;;;;;;;;;;;;5056676;28;28474;-90
2022/05/30 04:52:59;;;;;;;;;;;;;;;;;;5057987;28;28394;-93
2022/05/30 04:55:24;;;;;;;;;;;;;;;;;;5057953;28;28417;-92
2022/05/30 04:57:50;;;;;;;;;;;;;;;;;;5057739;28;29298;-93
2022/05/30 05:00:15;;;;;;;;;;;;;;;;;;5062159;28;28123;-92
2022/05/30 05:02:40;;;;;;;;;;;;;;;;;;5040284;28;28416;-95
2022/05/30 05:05:05;;;;;;;;;;;;;;;;;;5057370;28;28427;-94
2022/05/30 05:07:30;;;;;;;;;;;;;;;;;;5057328;28;28928;-90
2022/05/30 05:09:55;;;;;;;;;;;;;;;;;;5057768;28;28411;-90
2022/05/30 05:12:20;;;;;;;;;;;;;;;;;;5057888;28;28520;-92
2022/05/30 05:14:45;;;;;;;;;;;;;;;;;;5056179;28;28406;-93
2022/05/30 05:17:10;;;;;;;;;;;;;;;;;;5057300;28;29115;-93
2022/05/30 05:19:35;;;;;;;;;;;;;;;;;;5053773;28;28968;-89
2022/05/30 05:22:01;;;;;;;;;;;;;;;;;;5057599;28;28249;-90
2022/05/30 05:24:26;;;;;;;;;;;;;;;;;;5057668;28;28406;-93
2022/05/30 05:26:51;;;;;;;;;;;;;;;;;;5071036;28;29205;-93
2022/05/30 05:29:16;;;;;;;;;;;;;;;;;;5078564;28;28451;-92
2022/05/30 05:31:41;;;;;;;;;;;;;;;;;;5063819;28;28526;-90
2022/05/30 05:34:06;;;;;;;;;;;;;;;;;;5057787;28;28350;-92
2022/05/30 05:36:31;;;;;;;;;;;;;;;;;;5057502;28;28553;-92
2022/05/30 05:38:57;;;;;;;;;;;;;;;;;;5056953;28;28344;-95
2022/05/30 05:41:23;;;;;;;;;;;;;;;;;;5041342;28;28483;-94
2022/05/30 05:43:48;;;;;;;;;;;;;;;;;;5057453;28;28309;-93
2022/05/30 05:46:13;;;;;;;;;;;;;;;;;;5056559;28;30134;-95
2022/05/30 05:48:40;;;;;;;;;;;;;;;;;;5064019;28;28703;-95
2022/05/30 05:51:05;;;;;;;;;;;;;;;;;;5069073;28;27788;-95
2022/05/30 05:53:30;;;;;;;;;;;;;;;;;;5060438;28;28442;-90
2022/05/30 05:55:55;;;;;;;;;;;;;;;;;;5047946;28;28597;-91
2022/05/30 05:58:20;;;;;;;;;;;;;;;;;;5051720;28;28656;-92
2022/05/30 06:00:45;;;;;;;;;;;;;;;;;;5036647;28;28387;-90
2022/05/30 06:03:10;;;;;;;;;;;;;;;;;;5036785;28;28435;-93
2022/05/30 06:05:36;;;;;;;;;;;;;;;;;;5053241;28;31025;-95
2022/05/30 06:08:03;;;;;;;;;;;;;;;;;;5037279;28;28349;-93
2022/05/30 06:10:28;;;;;;;;;;;;;;;;;;5040012;28;27846;-94
2022/05/30 06:12:53;;;;;;;;;;;;;;;;;;5055796;28;28415;-92
2022/05/30 06:15:18;;;;;;;;;;;;;;;;;;5055865;28;30552;-91
2022/05/30 06:17:43;;;;;;;;;;;;;;;;;;5056386;28;28359;-91
2022/05/30 06:20:08;;;;;;;;;;;;;;;;;;5056359;28;28323;-92
2022/05/30 06:22:33;;;;;;;;;;;;;;;;;;5056635;28;28344;-90
2022/05/30 06:24:58;;;;;;;;;;;;;;;;;;5057729;28;28456;-94
2022/05/30 06:27:24;;;;;;;;;;;;;;;;;;5054952;28;29510;-91
2022/05/30 06:29:50;;;;;;;;;;;;;;;;;;5056560;28;28720;-91
2022/05/30 06:32:16;;;;;;;;;;;;;;;;;;5057081;28;28332;-94
2022/05/30 06:34:41;;;;;;;;;;;;;;;;;;5055482;28;30138;-94
2022/05/30 06:37:08;;;;;;;;;;;;;;;;;;5055562;28;28531;-91
2022/05/30 06:39:33;;;;;;;;;;;;;;;;;;5055919;28;28356;-93
2022/05/30 06:41:58;;;;;;;;;;;;;;;;;;5055520;28;28558;-94
2022/05/30 06:44:23;;;;;;;;;;;;;;;;;;5055512;28;29747;-94
2022/05/30 06:46:49;;;;;;;;;;;;;;;;;;5056398;28;28510;-95
2022/05/30 06:49:14;;;;;;;;;;;;;;;;;;5056256;28;29028;-94
2022/05/30 06:51:39;;;;;;;;;;;;;;;;;;5056353;28;28553;-93
2022/05/30 06:54:04;;;;;;;;;;;;;;;;;;5056070;28;29752;-90
2022/05/30 06:56:32;;;;;;;;;;;;;;;;;;5055857;28;28532;-92
2022/05/30 06:59:08;;;;;;;;;;;;;;;;;;5188484;27;28313;-90
2022/05/30 07:01:34;;;;;;;;;;;;;;;;;;5156296;27;28292;-94
2022/05/30 07:03:59;;;;;;;;;;;;;;;;;;5153133;27;28537;-94
2022/05/30 07:06:24;;;;;;;;;;;;;;;;;;5155045;27;27864;-92
2022/05/30 07:08:49;;;;;;;;;;;;;;;;;;5153166;27;30227;-93
2022/05/30 07:11:14;;;;;;;;;;;;;;;;;;5154672;27;28289;-92
2022/05/30 07:13:39;;;;;;;;;;;;;;;;;;5154569;27;28308;-89
2022/05/30 07:16:04;;;;;;;;;;;;;;;;;;5153683;27;28648;-92
2022/05/30 07:18:30;;;;;;;;;;;;;;;;;;5154662;27;29467;-91
2022/05/30 07:20:55;;;;;;;;;;;;;;;;;;5153433;27;28471;-90
2022/05/30 07:23:20;;;;;;;;;;;;;;;;;;5152927;27;28329;-87
2022/05/30 07:25:45;;;;;;;;;;;;;;;;;;5154442;27;28344;-89
2022/05/30 07:28:12;;;;;;;;;;;;;;;;;;5153664;27;29590;-88
2022/05/30 07:30:37;;;;;;;;;;;;;;;;;;5153438;27;28322;-88
2022/05/30 07:33:03;;;;;;;;;;;;;;;;;;5153780;27;28419;-89
2022/05/30 07:35:28;;;;;;;;;;;;;;;;;;5153790;27;28486;-90
2022/05/30 07:37:53;;;;;;;;;;;;;;;;;;5153125;27;28385;-86
2022/05/30 07:40:18;;;;;;;;;;;;;;;;;;5153499;27;28470;-85
2022/05/30 07:42:43;;;;;;;;;;;;;;;;;;5153431;27;28217;-86
2022/05/30 07:45:08;;;;;;;;;;;;;;;;;;5153621;27;28476;-87
2022/05/30 07:47:33;;;;;;;;;;;;;;;;;;5153340;27;28511;-88
2022/05/30 07:50:02;;;;;;;;;;;;;;;;;;5153427;27;28376;-88
2022/05/30 07:52:27;;;;;;;;;;;;;;;;;;5153452;27;28372;-89
2022/05/30 07:54:52;;;;;;;;;;;;;;;;;;5153381;27;27824;-90
2022/05/30 07:57:18;;;;;;;;;;;;;;;;;;5152812;27;28478;-87
2022/05/30 07:59:43;;;;;;;;;;;;;;;;;;5152728;27;28419;-88
2022/05/30 08:02:08;;;;;;;;;;;;;;;;;;5153450;27;28526;-87
2022/05/30 08:04:33;;;;;;;;;;;;;;;;;;5153260;27;28744;-89
2022/05/30 08:06:58;;;;;;;;;;;;;;;;;;5151841;27;29944;-87
2022/05/30 08:09:23;;;;;;;;;;;;;;;;;;5145293;27;28478;-87
2022/05/30 08:11:48;;;;;;;;;;;;;;;;;;5139166;27;27761;-87
2022/05/30 08:14:14;;;;;;;;;;;;;;;;;;5139273;27;28285;-87
2022/05/30 08:16:39;;;;;;;;;;;;;;;;;;5139029;27;28388;-87
2022/05/30 08:19:04;;;;;;;;;;;;;;;;;;5138986;27;28329;-86
2022/05/30 08:21:29;;;;;;;;;;;;;;;;;;5139072;27;28269;-88
2022/05/30 08:23:54;;;;;;;;;;;;;;;;;;5139310;27;28291;-86
2022/05/30 08:26:19;;;;;;;;;;;;;;;;;;5138956;27;28362;-87
2022/05/30 08:28:45;;;;;;;;;;;;;;;;;;5138739;27;28337;-86
2022/05/30 08:31:10;;;;;;;;;;;;;;;;;;5139249;27;28405;-86
2022/05/30 08:33:35;;;;;;;;;;;;;;;;;;5139044;27;27936;-86
2022/05/30 08:36:01;;;;;;;;;;;;;;;;;;5138879;27;29340;-87
2022/05/30 08:38:26;;;;;;;;;;;;;;;;;;5138885;27;28455;-87
2022/05/30 08:43:35;;;;;;;;;;;;;;;;;;5138639;27;28394;-87
2022/05/30 08:46:00;;;;;;;;;;;;;;;;;;5138942;27;28259;-87
2022/05/30 08:48:25;;;;;;;;;;;;;;;;;;5138679;27;28520;-87
2022/05/30 08:50:50;;;;;;;;;;;;;;;;;;5138858;27;27772;-87
2022/05/30 08:53:15;;;;;;;;;;;;;;;;;;5138684;27;28371;-87
2022/05/30 08:55:40;;;;;;;;;;;;;;;;;;5138417;27;28643;-87
2022/05/30 08:58:06;;;;;;;;;;;;;;;;;;5138154;27;28288;-87
2022/05/30 09:00:31;;;;;;;;;;;;;;;;;;5138720;27;28266;-87
2022/05/30 09:02:57;;;;;;;;;;;;;;;;;;5138779;27;27739;-88
2022/05/30 09:05:22;;;;;;;;;;;;;;;;;;5138241;27;28487;-87
2022/05/30 09:07:49;;;;;;;;;;;;;;;;;;5138443;27;28453;-86
2022/05/30 09:10:14;;;;;;;;;;;;;;;;;;5138667;27;28524;-87
2022/05/30 09:12:39;;;;;;;;;;;;;;;;;;5138374;27;28549;-87
2022/05/30 09:15:04;;;;;;;;;;;;;;;;;;5138486;27;28459;-87
2022/05/30 09:17:29;;;;;;;;;;;;;;;;;;5138275;27;28388;-87
2022/05/30 09:19:54;;;;;;;;;;;;;;;;;;5138050;27;28786;-87
2022/05/30 09:22:21;;;;;;;;;;;;;;;;;;5136110;27;28323;-87
2022/05/30 09:25:55;;;;;;;;;;;;;;;;;;5138140;27;28473;-87
2022/05/30 09:27:31;;;;;;;;;;;;;;;;;;5138022;27;28537;-86
2022/05/30 09:29:57;;;;;;;;;;;;;;;;;;5138004;27;28387;-87
2022/05/30 09:32:22;;;;;;;;;;;;;;;;;;5137990;27;28436;-87
2022/05/30 09:34:47;;;;;;;;;;;;;;;;;;5137762;27;28389;-87
2022/05/30 09:37:12;;;;;;;;;;;;;;;;;;5136430;27;29156;-87
2022/05/30 09:39:37;;;;;;;;;;;;;;;;;;5138084;27;28251;-87
2022/05/30 09:42:02;;;;;;;;;;;;;;;;;;5138210;27;28285;-87
2022/05/30 09:44:28;;;;;;;;;;;;;;;;;;5137400;27;28437;-87
2022/05/30 09:46:53;;;;;;;;;;;;;;;;;;5137991;27;28297;-88
2022/05/30 09:49:18;;;;;;;;;;;;;;;;;;5137648;27;28403;-88
2022/05/30 09:51:43;;;;;;;;;;;;;;;;;;5137650;27;28297;-88
2022/05/30 09:54:08;;;;;;;;;;;;;;;;;;5137856;27;28382;-87
2022/05/30 09:56:33;;;;;;;;;;;;;;;;;;5137522;27;28373;-87
2022/05/30 09:58:59;;;;;;;;;;;;;;;;;;5137230;27;28795;-88
2022/05/30 10:01:24;;;;;;;;;;;;;;;;;;5137613;27;28393;-87
2022/05/30 10:03:52;;;;;;;;;;;;;;;;;;5137389;27;29147;-88
2022/05/30 10:06:17;;;;;;;;;;;;;;;;;;5136280;27;28456;-88
2022/05/30 10:08:42;;;;;;;;;;;;;;;;;;5137466;27;28421;-88
2022/05/30 10:11:08;;;;;;;;;;;;;;;;;;5137752;27;28401;-88
2022/05/30 10:13:34;;;;;;;;;;;;;;;;;;5136923;27;29445;-87
2022/05/30 10:15:59;;;;;;;;;;;;;;;;;;5137349;27;28460;-88
2022/05/30 10:18:24;;;;;;;;;;;;;;;;;;5140706;27;28390;-88
2022/05/30 10:20:49;;;;;;;;;;;;;;;;;;5139041;27;28388;-87
2022/05/30 10:28:42;;;;;;;;;;;;;;;;;;5137130;27;28335;-88
2022/05/30 10:31:08;;;;;;;;;;;;;;;;;;5137255;27;28231;-88
2022/05/30 10:33:33;;;;;;;;;;;;;;;;;;5136765;27;29138;-88
2022/05/30 10:35:58;;;;;;;;;;;;;;;;;;5136935;27;27818;-88
2022/05/30 10:38:23;;;;;;;;;;;;;;;;;;5136940;27;28309;-88
2022/05/30 10:40:48;;;;;;;;;;;;;;;;;;5137127;27;28322;-88
2022/05/30 10:43:13;;;;;;;;;;;;;;;;;;5135569;27;29979;-89
2022/05/30 10:45:38;;;;;;;;;;;;;;;;;;5136826;27;28451;-88
2022/05/30 10:48:03;;;;;;;;;;;;;;;;;;5136796;27;27846;-88
2022/05/30 10:50:45;;;;;;;;;;;;;;;;;;5136945;27;28507;-88
2022/05/30 10:53:10;;;;;;;;;;;;;;;;;;5136865;27;29718;-88
2022/05/30 10:55:35;;;;;;;;;;;;;;;;;;5136760;27;28306;-88
2022/05/30 10:58:01;;;;;;;;;;;;;;;;;;5136430;27;28244;-88
2022/05/30 11:00:26;;;;;;;;;;;;;;;;;;5136979;27;28360;-88
2022/05/30 11:02:51;;;;;;;;;;;;;;;;;;5136589;27;28603;-88
2022/05/30 11:05:17;;;;;;;;;;;;;;;;;;5136769;27;28317;-88
2022/05/30 11:07:42;;;;;;;;;;;;;;;;;;5136572;27;28301;-88
2022/05/30 11:10:07;;;;;;;;;;;;;;;;;;5136685;27;28277;-88
2022/05/30 11:12:32;;;;;;;;;;;;;;;;;;5136623;27;28697;-88
2022/05/30 11:14:57;;;;;;;;;;;;;;;;;;5136368;27;28257;-88
2022/05/30 11:17:22;;;;;;;;;;;;;;;;;;5136618;27;28258;-88
2022/05/30 11:19:48;;;;;;;;;;;;;;;;;;5136435;27;28439;-88
2022/05/30 11:22:13;;;;;;;;;;;;;;;;;;5136285;27;28449;-89
2022/05/30 11:24:38;;;;;;;;;;;;;;;;;;5131669;27;28381;-88
2022/05/30 11:27:03;;;;;;;;;;;;;;;;;;5136401;27;28266;-88
2022/05/30 11:29:28;;;;;;;;;;;;;;;;;;5136657;27;28395;-89
2022/05/30 11:31:53;;;;;;;;;;;;;;;;;;5135991;27;28465;-89
2022/05/30 11:34:19;;;;;;;;;;;;;;;;;;5136449;27;28382;-89
2022/05/30 11:36:44;;;;;;;;;;;;;;;;;;5136355;27;28339;-89
2022/05/30 11:39:09;;;;;;;;;;;;;;;;;;5136245;27;28385;-89
2022/05/30 11:41:36;;;;;;;;;;;;;;;;;;5136222;27;29176;-89
2022/05/30 11:44:01;;;;;;;;;;;;;;;;;;5136595;27;28468;-89
2022/05/30 11:46:26;;;;;;;;;;;;;;;;;;5140034;27;28553;-88
2022/05/30 11:48:51;;;;;;;;;;;;;;;;;;5139878;27;28320;-89
2022/05/30 11:51:16;;;;;;;;;;;;;;;;;;5139605;27;28658;-89
2022/05/30 11:53:41;;;;;;;;;;;;;;;;;;5139819;27;28211;-89
2022/05/30 11:56:06;;;;;;;;;;;;;;;;;;5139702;27;28421;-89
2022/05/30 11:58:31;;;;;;;;;;;;;;;;;;5139286;27;28449;-90
2022/05/30 12:00:57;;;;;;;;;;;;;;;;;;5139455;27;28403;-90
2022/05/30 12:03:24;;;;;;;;;;;;;;;;;;5139366;27;28401;-90
2022/05/30 12:05:49;;;;;;;;;;;;;;;;;;5139629;27;28468;-89
2022/05/30 12:08:14;;;;;;;;;;;;;;;;;;5139504;27;28254;-90
2022/05/30 12:10:39;;;;;;;;;;;;;;;;;;5137979;27;29857;-90
2022/05/30 12:13:04;;;;;;;;;;;;;;;;;;5139085;27;28258;-90
2022/05/30 12:15:30;;;;;;;;;;;;;;;;;;5139131;27;29022;-89
2022/05/30 12:26:17;;;;;;;;;;;;;;;;;;5093851;28;28466;-87
2022/05/30 12:28:42;;;;;;;;;;;;;;;;;;5094041;28;35270;-87
2022/05/30 12:31:07;;;;;;;;;;;;;;;;;;5094085;28;29612;-88
2022/05/30 12:33:32;;;;;;;;;;;;;;;;;;5093706;28;28479;-89
2022/05/30 12:35:58;;;;;;;;;;;;;;;;;;5094008;28;28474;-87
2022/05/30 12:38:23;;;;;;;;;;;;;;;;;;5093924;28;28423;-87
2022/05/30 12:40:48;;;;;;;;;;;;;;;;;;5093876;28;28796;-87
2022/05/30 12:43:16;;;;;;;;;;;;;;;;;;5095563;28;28351;-87
2022/05/30 12:45:43;;;;;;;;;;;;;;;;;;5095311;28;28653;-88
2022/05/30 12:48:08;;;;;;;;;;;;;;;;;;5087029;28;28471;-87
2022/05/30 12:50:34;;;;;;;;;;;;;;;;;;5083880;28;28383;-85
2022/05/30 12:53:01;;;;;;;;;;;;;;;;;;5074668;28;28492;-84
2022/05/30 12:55:26;;;;;;;;;;;;;;;;;;5074905;28;28409;-85
2022/05/30 12:57:51;;;;;;;;;;;;;;;;;;5074638;28;28458;-87
2022/05/30 13:00:16;;;;;;;;;;;;;;;;;;5074670;28;29191;-87
2022/05/30 13:02:41;;;;;;;;;;;;;;;;;;5096988;27;28469;-87
2022/05/30 13:05:09;;;;;;;;;;;;;;;;;;5117673;27;28290;-87
2022/05/30 13:07:34;;;;;;;;;;;;;;;;;;5117930;27;28518;-87
2022/05/30 13:09:59;;;;;;;;;;;;;;;;;;5117689;27;28430;-87
2022/05/30 13:12:24;;;;;;;;;;;;;;;;;;5129972;27;28231;-87
2022/05/30 13:14:49;;;;;;;;;;;;;;;;;;5136684;27;28774;-87
2022/05/30 13:17:14;;;;;;;;;;;;;;;;;;5136811;27;28529;-87
2022/05/30 13:19:39;;;;;;;;;;;;;;;;;;5137640;27;28657;-87
2022/05/30 13:22:04;;;;;;;;;;;;;;;;;;5137682;27;28517;-87
2022/05/30 13:24:30;;;;;;;;;;;;;;;;;;5137828;27;28328;-87
2022/05/30 13:26:55;;;;;;;;;;;;;;;;;;5137778;27;28487;-88
2022/05/30 13:29:20;;;;;;;;;;;;;;;;;;5136298;27;28593;-85
2022/05/30 13:31:45;;;;;;;;;;;;;;;;;;5137552;27;28409;-91
2022/05/30 13:34:11;;;;;;;;;;;;;;;;;;5136814;27;28383;-90
2022/05/30 13:36:36;;;;;;;;;;;;;;;;;;5137659;27;28386;-91
2022/05/30 13:39:01;;;;;;;;;;;;;;;;;;5135559;27;30103;-90
2022/05/30 13:41:26;;;;;;;;;;;;;;;;;;5136073;27;28462;-91
2022/05/30 13:43:51;;;;;;;;;;;;;;;;;;5137374;27;28391;-90
2022/05/30 13:46:16;;;;;;;;;;;;;;;;;;5135467;27;28618;-90
2022/05/30 13:48:42;;;;;;;;;;;;;;;;;;5135798;27;30645;-91
2022/05/30 13:51:07;;;;;;;;;;;;;;;;;;5135780;27;28299;-92
2022/05/30 13:53:32;;;;;;;;;;;;;;;;;;5137271;27;28403;-90
2022/05/30 13:55:57;;;;;;;;;;;;;;;;;;5135662;27;28620;-91
2022/05/30 13:58:22;;;;;;;;;;;;;;;;;;5136392;27;28581;-90
2022/05/30 14:00:47;;;;;;;;;;;;;;;;;;5136533;27;28239;-90
2022/05/30 14:03:12;;;;;;;;;;;;;;;;;;5130254;27;28289;-93
2022/05/30 14:05:38;;;;;;;;;;;;;;;;;;5133179;27;28446;-91
2022/05/30 14:08:03;;;;;;;;;;;;;;;;;;5122666;27;29395;-92
2022/05/30 14:10:28;;;;;;;;;;;;;;;;;;5134897;27;28472;-92
2022/05/30 14:12:54;;;;;;;;;;;;;;;;;;5138883;27;28423;-92
2022/05/30 14:15:19;;;;;;;;;;;;;;;;;;5136032;27;28412;-91
2022/05/30 14:17:44;;;;;;;;;;;;;;;;;;5136442;27;28522;-91
2022/05/30 14:20:11;;;;;;;;;;;;;;;;;;5136286;27;28570;-91
2022/05/30 14:22:36;;;;;;;;;;;;;;;;;;5136804;27;28400;-92
2022/05/30 14:25:03;;;;;;;;;;;;;;;;;;5136958;27;28435;-88
2022/05/30 14:27:28;;;;;;;;;;;;;;;;;;5136488;27;28429;-90
2022/05/30 14:29:53;;;;;;;;;;;;;;;;;;5136569;27;28467;-91
2022/05/30 14:32:18;;;;;;;;;;;;;;;;;;5136788;27;28420;-88
2022/05/30 14:34:43;;;;;;;;;;;;;;;;;;5134599;27;28680;-91
2022/05/30 14:37:08;;;;;;;;;;;;;;;;;;5135193;27;29904;-89
2022/05/30 14:39:34;;;;;;;;;;;;;;;;;;5136469;27;28397;-89
2022/05/30 14:41:59;;;;;;;;;;;;;;;;;;5136302;27;28421;-90
2022/05/30 14:44:24;;;;;;;;;;;;;;;;;;5135290;27;28309;-88
2022/05/30 14:46:50;;;;;;;;;;;;;;;;;;5135635;27;28387;-89
2022/05/30 14:49:15;;;;;;;;;;;;;;;;;;5134961;27;28371;-88
2022/05/30 14:51:42;;;;;;;;;;;;;;;;;;5135208;27;28297;-88
2022/05/30 14:54:07;;;;;;;;;;;;;;;;;;5135787;27;28420;-88
2022/05/30 14:56:33;;;;;;;;;;;;;;;;;;5135854;27;28316;-89
2022/05/30 14:58:58;;;;;;;;;;;;;;;;;;5135855;27;28545;-88
2022/05/30 15:01:23;;;;;;;;;;;;;;;;;;5134619;27;28461;-88
2022/05/30 15:04:05;;;;;;;;;;;;;;;;;;5135811;27;28480;-88
2022/05/30 15:06:30;;;;;;;;;;;;;;;;;;5135590;27;28331;-88
2022/05/30 15:08:55;;;;;;;;;;;;;;;;;;5135926;27;28296;-88
2022/05/30 15:11:22;;;;;;;;;;;;;;;;;;5135858;27;28393;-89
2022/05/30 15:13:47;;;;;;;;;;;;;;;;;;5136076;27;28449;-88
2022/05/30 15:16:12;;;;;;;;;;;;;;;;;;5135761;27;29542;-88
2022/05/30 15:18:38;;;;;;;;;;;;;;;;;;5135738;27;28892;-88
2022/05/30 15:21:03;;;;;;;;;;;;;;;;;;5139819;27;28426;-90
2022/05/30 15:23:28;;;;;;;;;;;;;;;;;;5139498;27;28872;-90
2022/05/30 15:25:56;;;;;;;;;;;;;;;;;;5139308;27;29402;-90
2022/05/30 15:28:21;;;;;;;;;;;;;;;;;;5139507;27;28394;-89
2022/05/30 15:30:46;;;;;;;;;;;;;;;;;;5138574;27;28441;-89
2022/05/30 15:33:12;;;;;;;;;;;;;;;;;;5139260;27;28538;-89
2022/05/30 15:35:37;;;;;;;;;;;;;;;;;;5138655;27;28779;-88
2022/05/30 15:38:02;;;;;;;;;;;;;;;;;;5139246;27;28460;-89
2022/05/30 15:40:27;;;;;;;;;;;;;;;;;;5139303;27;28465;-89
2022/05/30 15:42:54;;;;;;;;;;;;;;;;;;5139216;27;28394;-89
2022/05/30 15:45:19;;;;;;;;;;;;;;;;;;5139239;27;28508;-94
2022/05/30 15:47:45;;;;;;;;;;;;;;;;;;5138017;27;29486;-89
2022/05/30 15:50:10;;;;;;;;;;;;;;;;;;5138358;27;27728;-87
2022/05/30 15:58:02;;;;;;;;;;;;;;;;;;5138533;27;28495;-91
2022/05/30 16:00:28;;;;;;;;;;;;;;;;;;5137314;27;28959;-90
2022/05/30 16:02:53;;;;;;;;;;;;;;;;;;5138020;27;28515;-91
2022/05/30 16:05:18;;;;;;;;;;;;;;;;;;5139650;27;30023;-94
2022/05/30 16:07:44;;;;;;;;;;;;;;;;;;5140236;27;31552;-88
2022/05/30 16:10:09;;;;;;;;;;;;;;;;;;5138131;27;28429;-92
2022/05/30 16:12:34;;;;;;;;;;;;;;;;;;5139057;27;27769;-92
2022/05/30 16:14:59;;;;;;;;;;;;;;;;;;5138890;27;28285;-93
2022/05/30 16:17:24;;;;;;;;;;;;;;;;;;5136943;27;28944;-92
2022/05/30 16:19:49;;;;;;;;;;;;;;;;;;5138283;27;27875;-91
2022/05/30 16:22:15;;;;;;;;;;;;;;;;;;5137016;27;28471;-91
2022/05/30 16:24:40;;;;;;;;;;;;;;;;;;5138582;27;29033;-92
2022/05/30 16:27:05;;;;;;;;;;;;;;;;;;5138245;27;28309;-90
2022/05/30 16:29:30;;;;;;;;;;;;;;;;;;5137446;27;28506;-91
2022/05/30 16:31:55;;;;;;;;;;;;;;;;;;5138186;27;28432;-92
2022/05/30 16:34:21;;;;;;;;;;;;;;;;;;5138108;27;28255;-91
2022/05/30 16:36:47;;;;;;;;;;;;;;;;;;5138311;27;28336;-90
2022/05/30 16:39:13;;;;;;;;;;;;;;;;;;5137935;27;28268;-90
2022/05/30 16:41:39;;;;;;;;;;;;;;;;;;5138319;27;28593;-90
2022/05/30 16:44:04;;;;;;;;;;;;;;;;;;5138013;27;29117;-91
2022/05/30 16:46:29;;;;;;;;;;;;;;;;;;5138787;27;28509;-94
2022/05/30 16:48:54;;;;;;;;;;;;;;;;;;5138120;27;28597;-93
2022/05/30 16:51:19;;;;;;;;;;;;;;;;;;5137305;27;28585;-90
2022/05/30 16:53:44;;;;;;;;;;;;;;;;;;5137889;27;28478;-94
2022/05/30 16:56:09;;;;;;;;;;;;;;;;;;5137210;27;29074;-95
2022/05/30 16:58:34;;;;;;;;;;;;;;;;;;5136808;27;27794;-93
2022/05/30 17:01:00;;;;;;;;;;;;;;;;;;5138281;27;35216;-93